Time;durP1;ratioP1;P1;durP2;ratioP2;P2;SDS_P1;SDS_P2;PMS_P1;PMS_P2;Temp;Humidity;BMP_temperature;BMP_pressure;BME280_temperature;BME280_humidity;BME280_pressure;Samples;Min_cycle;Max_cycle;Signal;HPM_P1;HPM_P2
2023/03/26 00:01:09;;;;;;;23.15;8.13;;;;;;;;;;5087098;28;20024;-61
2023/03/26 00:03:36;;;;;;;22.70;7.65;;;;;;;;;;5073728;28;20430;-61
2023/03/26 00:06:02;;;;;;;27.95;7.72;;;;;;;;;;5074011;28;20099;-62
2023/03/26 00:08:28;;;;;;;27.35;8.43;;;;;;;;;;5073484;28;20021;-62
2023/03/26 00:10:53;;;;;;;20.95;7.18;;;;;;;;;;5073728;28;20025;-62
2023/03/26 00:13:18;;;;;;;18.02;6.13;;;;;;;;;;5073939;28;20476;-62
2023/03/26 00:15:44;;;;;;;25.13;8.27;;;;;;;;;;5073946;28;20016;-62
2023/03/26 00:18:09;;;;;;;21.95;7.90;;;;;;;;;;5073557;28;20020;-62
2023/03/26 00:20:34;;;;;;;25.92;7.80;;;;;;;;;;5073541;28;20033;-62
2023/03/26 00:23:02;;;;;;;21.85;8.05;;;;;;;;;;5082270;28;20020;-62
2023/03/26 00:25:27;;;;;;;38.08;9.15;;;;;;;;;;5074731;28;20025;-62
2023/03/26 00:27:53;;;;;;;25.98;7.85;;;;;;;;;;5074414;28;20182;-61
2023/03/26 00:30:19;;;;;;;20.58;7.30;;;;;;;;;;5072972;28;20032;-61
2023/03/26 00:32:44;;;;;;;27.75;8.48;;;;;;;;;;5073459;28;20035;-61
2023/03/26 00:35:10;;;;;;;29.50;8.02;;;;;;;;;;5086076;28;20037;-61
2023/03/26 00:37:35;;;;;;;26.52;8.00;;;;;;;;;;5073713;28;20107;-61
2023/03/26 00:40:06;;;;;;;34.28;7.18;;;;;;;;;;5073776;28;20035;-61
2023/03/26 00:42:32;;;;;;;22.38;7.40;;;;;;;;;;5073628;28;20086;-61
2023/03/26 00:44:57;;;;;;;30.50;7.82;;;;;;;;;;5073235;28;20025;-61
2023/03/26 00:47:27;;;;;;;22.50;8.07;;;;;;;;;;5072977;28;20024;-62
2023/03/26 00:49:52;;;;;;;26.42;8.05;;;;;;;;;;5072938;28;20034;-61
2023/03/26 00:52:22;;;;;;;17.95;6.88;;;;;;;;;;5073230;28;20028;-61
2023/03/26 00:54:50;;;;;;;20.13;6.68;;;;;;;;;;5080209;28;20093;-61
2023/03/26 00:57:15;;;;;;;20.75;7.22;;;;;;;;;;5072124;28;20028;-62
2023/03/26 00:59:41;;;;;;;24.30;6.90;;;;;;;;;;5080302;28;20091;-61
2023/03/26 01:02:09;;;;;;;23.20;7.10;;;;;;;;;;5081849;28;20158;-62
2023/03/26 01:04:36;;;;;;;30.70;7.15;;;;;;;;;;5072956;28;20153;-62
2023/03/26 01:07:09;;;;;;;29.90;7.78;;;;;;;;;;5073495;28;20055;-61
2023/03/26 01:09:35;;;;;;;30.42;7.57;;;;;;;;;;5072822;28;20049;-62
2023/03/26 01:12:01;;;;;;;22.42;7.03;;;;;;;;;;5072824;28;20028;-61
2023/03/26 01:14:28;;;;;;;16.73;6.57;;;;;;;;;;5071842;28;20035;-62
2023/03/26 01:16:57;;;;;;;13.38;5.85;;;;;;;;;;5072537;28;20024;-61
2023/03/26 01:19:38;;;;;;;20.42;6.32;;;;;;;;;;5073432;28;20033;-61
2023/03/26 01:22:04;;;;;;;15.32;5.28;;;;;;;;;;5054982;28;20028;-62
2023/03/26 01:24:30;;;;;;;21.17;6.38;;;;;;;;;;5072925;28;20036;-61
2023/03/26 01:27:10;;;;;;;28.15;6.78;;;;;;;;;;5080945;28;20177;-62
2023/03/26 01:29:44;;;;;;;17.77;5.13;;;;;;;;;;5072741;28;20028;-62
2023/03/26 01:32:12;;;;;;;20.90;5.85;;;;;;;;;;5072520;28;20028;-61
2023/03/26 01:34:37;;;;;;;19.98;5.63;;;;;;;;;;5072366;28;20036;-61
2023/03/26 01:37:19;;;;;;;14.40;4.53;;;;;;;;;;5072486;28;20028;-61
2023/03/26 01:39:52;;;;;;;14.90;5.13;;;;;;;;;;5072174;28;20274;-61
2023/03/26 01:42:39;;;;;;;17.88;5.28;;;;;;;;;;5079918;28;20035;-61
2023/03/26 01:45:14;;;;;;;17.25;5.07;;;;;;;;;;5072347;28;20028;-61
2023/03/26 01:47:40;;;;;;;14.70;5.10;;;;;;;;;;5072395;28;20074;-60
2023/03/26 01:50:05;;;;;;;17.65;5.00;;;;;;;;;;5084684;28;20032;-61
2023/03/26 01:52:31;;;;;;;13.48;4.45;;;;;;;;;;5072802;28;20399;-61
2023/03/26 01:54:56;;;;;;;12.38;4.47;;;;;;;;;;5073481;28;20024;-60
2023/03/26 01:57:27;;;;;;;16.27;5.07;;;;;;;;;;5072118;28;20035;-61
2023/03/26 01:59:53;;;;;;;13.68;4.63;;;;;;;;;;5072706;28;20078;-61
2023/03/26 02:02:30;;;;;;;12.63;4.30;;;;;;;;;;5072031;28;20020;-61
2023/03/26 02:05:00;;;;;;;18.13;4.15;;;;;;;;;;5072163;28;20274;-61
2023/03/26 02:07:36;;;;;;;8.90;3.80;;;;;;;;;;5082753;28;20062;-61
2023/03/26 02:10:13;;;;;;;23.08;5.13;;;;;;;;;;5071881;28;20055;-61
2023/03/26 02:12:40;;;;;;;14.85;4.57;;;;;;;;;;5084785;28;20031;-61
2023/03/26 02:15:05;;;;;;;16.58;5.10;;;;;;;;;;5071921;28;20017;-61
2023/03/26 02:17:31;;;;;;;17.75;5.25;;;;;;;;;;5071796;28;20028;-61
2023/03/26 02:19:57;;;;;;;21.10;4.45;;;;;;;;;;5072291;28;20083;-61
2023/03/26 02:22:28;;;;;;;19.67;5.00;;;;;;;;;;5074995;28;20017;-61
2023/03/26 02:24:54;;;;;;;18.17;4.75;;;;;;;;;;5071875;28;20111;-61
2023/03/26 02:27:20;;;;;;;17.73;3.92;;;;;;;;;;5071838;28;20029;-61
2023/03/26 02:29:46;;;;;;;16.83;5.13;;;;;;;;;;5071538;28;20078;-61
2023/03/26 02:32:12;;;;;;;12.85;4.93;;;;;;;;;;5071783;28;20032;-61
2023/03/26 02:34:38;;;;;;;9.73;3.88;;;;;;;;;;5061962;28;20296;-61
2023/03/26 02:37:03;;;;;;;19.38;4.53;;;;;;;;;;5077501;28;20468;-61
2023/03/26 02:39:29;;;;;;;9.88;4.55;;;;;;;;;;5071162;28;20063;-61
2023/03/26 02:41:54;;;;;;;9.77;4.07;;;;;;;;;;5075287;28;20098;-61
2023/03/26 02:44:20;;;;;;;16.15;4.55;;;;;;;;;;5081049;28;20054;-61
2023/03/26 02:46:45;;;;;;;14.40;4.10;;;;;;;;;;5071241;28;20067;-61
2023/03/26 02:49:10;;;;;;;12.32;5.18;;;;;;;;;;5076595;28;20489;-61
2023/03/26 02:51:36;;;;;;;12.00;4.25;;;;;;;;;;5070920;28;20512;-61
2023/03/26 02:54:01;;;;;;;17.58;4.53;;;;;;;;;;5054363;28;20039;-61
2023/03/26 02:56:27;;;;;;;11.27;4.72;;;;;;;;;;5071474;28;20044;-61
2023/03/26 02:58:52;;;;;;;14.32;4.43;;;;;;;;;;5084313;28;20024;-61
2023/03/26 03:01:17;;;;;;;23.13;4.50;;;;;;;;;;5071992;28;20124;-61
2023/03/26 03:03:43;;;;;;;16.25;4.93;;;;;;;;;;5070932;28;20486;-61
2023/03/26 03:06:08;;;;;;;16.42;5.78;;;;;;;;;;5071129;28;20024;-61
2023/03/26 03:08:34;;;;;;;17.48;4.15;;;;;;;;;;5068817;28;20107;-61
2023/03/26 03:11:01;;;;;;;17.10;5.20;;;;;;;;;;5078023;28;20020;-61
2023/03/26 03:13:26;;;;;;;10.38;4.28;;;;;;;;;;5078052;28;20050;-61
2023/03/26 03:15:52;;;;;;;12.18;4.65;;;;;;;;;;5083863;28;20405;-61
2023/03/26 03:18:17;;;;;;;18.92;5.32;;;;;;;;;;5073988;28;20036;-61
2023/03/26 03:20:43;;;;;;;17.88;4.53;;;;;;;;;;5074693;28;20074;-61
2023/03/26 03:23:09;;;;;;;16.73;4.43;;;;;;;;;;5076342;28;20021;-61
2023/03/26 03:25:34;;;;;;;15.23;4.65;;;;;;;;;;5086580;28;20028;-61
2023/03/26 03:27:59;;;;;;;12.80;5.35;;;;;;;;;;5074438;28;20028;-61
2023/03/26 03:30:25;;;;;;;8.55;3.92;;;;;;;;;;5076799;28;20035;-61
2023/03/26 03:32:50;;;;;;;20.00;5.47;;;;;;;;;;5079913;28;20375;-61
2023/03/26 03:35:15;;;;;;;18.00;4.85;;;;;;;;;;5074560;28;20016;-61
2023/03/26 03:37:41;;;;;;;14.98;4.85;;;;;;;;;;5074349;28;20091;-61
2023/03/26 03:40:07;;;;;;;19.80;5.15;;;;;;;;;;5074117;28;20020;-61
2023/03/26 03:42:32;;;;;;;13.88;5.22;;;;;;;;;;5081855;28;20113;-62
2023/03/26 03:44:57;;;;;;;20.58;5.10;;;;;;;;;;5074174;28;20021;-61
2023/03/26 03:47:23;;;;;;;16.63;5.25;;;;;;;;;;5074502;28;20024;-61
2023/03/26 03:49:49;;;;;;;15.80;4.20;;;;;;;;;;5074185;28;20016;-61
2023/03/26 03:52:15;;;;;;;17.00;4.55;;;;;;;;;;5067576;28;20046;-61
2023/03/26 03:54:40;;;;;;;12.48;4.57;;;;;;;;;;5085560;28;20032;-61
2023/03/26 03:57:05;;;;;;;18.52;5.53;;;;;;;;;;5075582;28;20028;-62
2023/03/26 03:59:31;;;;;;;26.30;5.25;;;;;;;;;;5074058;28;20364;-61
2023/03/26 04:01:56;;;;;;;14.57;5.15;;;;;;;;;;5074019;28;20035;-61
2023/03/26 04:04:23;;;;;;;23.40;5.72;;;;;;;;;;5073725;28;20382;-61
2023/03/26 04:06:48;;;;;;;15.48;4.13;;;;;;;;;;5073914;28;20028;-61
2023/03/26 04:09:14;;;;;;;15.13;6.07;;;;;;;;;;5076978;28;20016;-61
2023/03/26 04:11:39;;;;;;;12.30;5.25;;;;;;;;;;5082449;28;20470;-61
2023/03/26 04:14:04;;;;;;;14.38;5.57;;;;;;;;;;5078515;28;20032;-61
2023/03/26 04:16:30;;;;;;;15.60;4.60;;;;;;;;;;5073908;28;20032;-61
2023/03/26 04:18:56;;;;;;;11.90;4.57;;;;;;;;;;5075375;28;20052;-61
2023/03/26 04:21:22;;;;;;;14.30;5.68;;;;;;;;;;5085141;28;20032;-61
2023/03/26 04:23:48;;;;;;;17.23;5.72;;;;;;;;;;5073800;28;20013;-61
2023/03/26 04:26:15;;;;;;;14.05;5.18;;;;;;;;;;5073793;28;20074;-61
2023/03/26 04:28:41;;;;;;;22.40;5.07;;;;;;;;;;5072963;28;20036;-62
2023/03/26 04:31:10;;;;;;;19.20;5.65;;;;;;;;;;5073061;28;20019;-61
2023/03/26 04:33:37;;;;;;;13.15;5.22;;;;;;;;;;5073920;28;20042;-61
2023/03/26 04:36:03;;;;;;;23.52;5.60;;;;;;;;;;5076646;28;20028;-61
2023/03/26 04:38:32;;;;;;;15.23;5.63;;;;;;;;;;5076932;28;20043;-63
2023/03/26 04:40:58;;;;;;;13.77;4.72;;;;;;;;;;5073453;28;20103;-62
2023/03/26 04:43:25;;;;;;;18.50;5.65;;;;;;;;;;5073053;28;20426;-62
2023/03/26 04:45:51;;;;;;;13.65;5.00;;;;;;;;;;5073521;28;20059;-61
2023/03/26 04:48:16;;;;;;;16.02;4.95;;;;;;;;;;5074143;28;20062;-62
2023/03/26 04:50:42;;;;;;;17.45;5.63;;;;;;;;;;5073413;28;20414;-61
2023/03/26 04:53:12;;;;;;;14.73;4.75;;;;;;;;;;5073239;28;20412;-61
2023/03/26 04:55:40;;;;;;;12.05;4.95;;;;;;;;;;5073547;28;20036;-61
2023/03/26 04:58:06;;;;;;;15.93;5.15;;;;;;;;;;5072953;28;20012;-61
2023/03/26 05:00:31;;;;;;;14.13;4.40;;;;;;;;;;5073190;28;20058;-61
2023/03/26 05:03:00;;;;;;;13.55;5.05;;;;;;;;;;5078035;28;20114;-61
2023/03/26 05:05:26;;;;;;;22.40;5.57;;;;;;;;;;5077392;28;20030;-61
2023/03/26 05:07:51;;;;;;;14.05;5.72;;;;;;;;;;5072661;28;20020;-61
2023/03/26 05:10:19;;;;;;;17.35;5.50;;;;;;;;;;5070428;28;20025;-62
2023/03/26 05:12:45;;;;;;;14.60;5.53;;;;;;;;;;5072824;28;20029;-61
2023/03/26 05:15:11;;;;;;;20.58;5.38;;;;;;;;;;5083807;28;20027;-61
2023/03/26 05:17:40;;;;;;;17.85;5.88;;;;;;;;;;5079080;28;20046;-61
2023/03/26 05:20:07;;;;;;;16.80;5.65;;;;;;;;;;5076445;28;20390;-61
2023/03/26 05:22:32;;;;;;;18.30;5.32;;;;;;;;;;5073334;28;20111;-61
2023/03/26 05:24:58;;;;;;;24.90;5.85;;;;;;;;;;5072725;28;20126;-61
2023/03/26 05:27:23;;;;;;;13.00;5.07;;;;;;;;;;5072763;28;20421;-61
2023/03/26 05:29:48;;;;;;;17.98;5.28;;;;;;;;;;5078632;28;20028;-61
2023/03/26 05:32:14;;;;;;;11.23;4.75;;;;;;;;;;5073345;28;20025;-61
2023/03/26 05:34:40;;;;;;;16.33;5.93;;;;;;;;;;5072664;28;20020;-61
2023/03/26 05:37:05;;;;;;;22.85;5.45;;;;;;;;;;5072568;28;20017;-61
2023/03/26 05:39:31;;;;;;;14.25;5.65;;;;;;;;;;5074540;28;20051;-61
2023/03/26 05:41:56;;;;;;;19.75;6.07;;;;;;;;;;5082413;28;20024;-61
2023/03/26 05:44:21;;;;;;;17.30;5.68;;;;;;;;;;5064698;28;20498;-62
2023/03/26 05:46:47;;;;;;;16.70;5.32;;;;;;;;;;5065744;28;20039;-62
2023/03/26 05:49:12;;;;;;;15.15;5.47;;;;;;;;;;5067327;28;20043;-61
2023/03/26 05:51:37;;;;;;;21.02;6.35;;;;;;;;;;5068114;28;20025;-61
2023/03/26 05:54:03;;;;;;;12.95;4.65;;;;;;;;;;5069595;28;20026;-61
2023/03/26 05:56:28;;;;;;;17.70;5.35;;;;;;;;;;5067937;28;20680;-61
2023/03/26 05:58:54;;;;;;;13.68;5.22;;;;;;;;;;5077149;28;20512;-61
2023/03/26 06:01:19;;;;;;;17.95;4.88;;;;;;;;;;5068624;28;20036;-61
2023/03/26 06:03:45;;;;;;;16.27;5.70;;;;;;;;;;5069588;28;20470;-61
2023/03/26 06:06:15;;;;;;;14.05;4.72;;;;;;;;;;5066451;28;20028;-61
2023/03/26 06:08:47;;;;;;;15.43;5.72;;;;;;;;;;5066221;28;20020;-61
2023/03/26 06:11:13;;;;;;;17.83;4.90;;;;;;;;;;5075878;28;20371;-61
2023/03/26 06:13:38;;;;;;;16.23;4.03;;;;;;;;;;5068303;28;20029;-61
2023/03/26 06:16:04;;;;;;;14.18;4.88;;;;;;;;;;5071495;28;20024;-61
2023/03/26 06:18:30;;;;;;;16.00;5.38;;;;;;;;;;5066798;28;20032;-61
2023/03/26 06:20:55;;;;;;;11.65;4.75;;;;;;;;;;5056431;28;20588;-61
2023/03/26 06:23:22;;;;;;;19.05;4.80;;;;;;;;;;5067770;28;20055;-61
2023/03/26 06:25:47;;;;;;;21.25;5.40;;;;;;;;;;5070191;28;20046;-61
2023/03/26 06:28:12;;;;;;;19.85;5.95;;;;;;;;;;5065238;28;20024;-61
2023/03/26 06:30:38;;;;;;;13.20;4.43;;;;;;;;;;5063490;28;20467;-61
2023/03/26 06:33:03;;;;;;;13.63;5.78;;;;;;;;;;5062515;28;20463;-61
2023/03/26 06:35:29;;;;;;;21.92;5.38;;;;;;;;;;5065632;28;20024;-62
2023/03/26 06:37:54;;;;;;;12.27;4.70;;;;;;;;;;5067987;28;20032;-61
2023/03/26 06:40:20;;;;;;;21.98;5.22;;;;;;;;;;5062831;28;20035;-61
2023/03/26 06:42:45;;;;;;;18.10;4.70;;;;;;;;;;5062019;28;20046;-61
2023/03/26 06:45:10;;;;;;;12.27;4.68;;;;;;;;;;5062564;28;20025;-61
2023/03/26 06:47:35;;;;;;;10.90;4.45;;;;;;;;;;5063243;28;20047;-61
2023/03/26 06:50:01;;;;;;;20.98;4.43;;;;;;;;;;5061217;28;20395;-61
2023/03/26 06:52:27;;;;;;;21.08;5.32;;;;;;;;;;5066247;28;20028;-61
2023/03/26 06:54:52;;;;;;;13.25;5.20;;;;;;;;;;5078002;28;20028;-61
2023/03/26 06:57:18;;;;;;;12.25;5.18;;;;;;;;;;5075211;28;20107;-61
2023/03/26 06:59:43;;;;;;;17.88;5.68;;;;;;;;;;5075011;28;20386;-61
2023/03/26 07:02:09;;;;;;;17.88;6.07;;;;;;;;;;5074915;28;20036;-61
2023/03/26 07:04:35;;;;;;;14.82;5.05;;;;;;;;;;5074673;28;20021;-61
2023/03/26 07:07:00;;;;;;;15.43;5.18;;;;;;;;;;5074715;28;20020;-61
2023/03/26 07:09:29;;;;;;;11.95;4.32;;;;;;;;;;5077025;28;20035;-60
2023/03/26 07:11:54;;;;;;;17.02;4.45;;;;;;;;;;5081375;28;20031;-61
2023/03/26 07:14:19;;;;;;;13.90;4.88;;;;;;;;;;5075719;28;20024;-60
2023/03/26 07:16:45;;;;;;;12.35;4.97;;;;;;;;;;5074396;28;20032;-60
2023/03/26 07:19:10;;;;;;;13.57;4.97;;;;;;;;;;5073659;28;20016;-61
2023/03/26 07:21:35;;;;;;;7.85;3.67;;;;;;;;;;5074357;28;20052;-61
2023/03/26 07:24:01;;;;;;;8.35;3.50;;;;;;;;;;5086775;28;20082;-61
2023/03/26 07:26:29;;;;;;;15.50;4.45;;;;;;;;;;5074472;28;20154;-61
2023/03/26 07:29:09;;;;;;;12.57;4.57;;;;;;;;;;5078062;28;20025;-61
2023/03/26 07:31:53;;;;;;;12.60;3.92;;;;;;;;;;5082019;28;20025;-61
2023/03/26 07:34:24;;;;;;;9.85;4.32;;;;;;;;;;5078758;28;20039;-61
2023/03/26 07:36:52;;;;;;;11.38;3.72;;;;;;;;;;5078057;28;20600;-61
2023/03/26 07:39:36;;;;;;;13.50;3.83;;;;;;;;;;5078412;28;20035;-61
2023/03/26 07:42:19;;;;;;;9.70;3.40;;;;;;;;;;5044966;28;20024;-61
2023/03/26 07:44:45;;;;;;;10.10;3.33;;;;;;;;;;5044000;28;20036;-61
2023/03/26 07:47:24;;;;;;;9.90;3.67;;;;;;;;;;5036541;28;20058;-61
2023/03/26 07:49:50;;;;;;;10.57;3.22;;;;;;;;;;5041579;28;20123;-61
2023/03/26 07:52:15;;;;;;;7.60;3.33;;;;;;;;;;5032664;28;20025;-61
2023/03/26 07:54:41;;;;;;;12.75;3.65;;;;;;;;;;5042051;28;20925;-61
2023/03/26 07:57:17;;;;;;;10.55;3.38;;;;;;;;;;5037435;28;20016;-61
2023/03/26 07:59:46;;;;;;;15.93;3.78;;;;;;;;;;5042358;28;20027;-61
2023/03/26 08:02:30;;;;;;;13.35;3.95;;;;;;;;;;5037908;28;20070;-61
2023/03/26 08:05:01;;;;;;;7.47;3.15;;;;;;;;;;5042452;28;20020;-61
2023/03/26 08:07:53;;;;;;;8.82;3.63;;;;;;;;;;5060952;28;20039;-61
2023/03/26 08:10:21;;;;;;;5.93;2.53;;;;;;;;;;5072169;28;20059;-61
2023/03/26 08:12:49;;;;;;;9.30;5.07;;;;;;;;;;5073672;28;20036;-61
2023/03/26 08:15:15;;;;;;;15.02;8.20;;;;;;;;;;5075869;28;20031;-61
2023/03/26 08:17:46;;;;;;;12.10;6.40;;;;;;;;;;5075989;28;20047;-62
2023/03/26 08:20:25;;;;;;;13.27;5.00;;;;;;;;;;5079332;28;20021;-61
2023/03/26 08:22:55;;;;;;;7.15;3.38;;;;;;;;;;5073894;28;20020;-61
2023/03/26 08:25:32;;;;;;;13.35;3.95;;;;;;;;;;5083187;28;20048;-61
2023/03/26 08:27:57;;;;;;;15.15;3.38;;;;;;;;;;5084146;28;20028;-61
2023/03/26 08:30:23;;;;;;;11.75;3.33;;;;;;;;;;5080629;28;20028;-61
2023/03/26 08:32:54;;;;;;;6.82;2.92;;;;;;;;;;5073393;28;20028;-61
2023/03/26 08:35:20;;;;;;;8.15;2.95;;;;;;;;;;5078914;28;20050;-61
2023/03/26 08:37:45;;;;;;;8.98;3.17;;;;;;;;;;5073618;28;20025;-62
2023/03/26 08:40:12;;;;;;;5.75;2.25;;;;;;;;;;5078070;28;20110;-61
2023/03/26 08:42:37;;;;;;;7.95;3.25;;;;;;;;;;5073087;28;20024;-61
2023/03/26 08:45:26;;;;;;;10.10;3.00;;;;;;;;;;5074742;28;20024;-61
2023/03/26 08:48:19;;;;;;;7.18;2.88;;;;;;;;;;5039723;28;20285;-63
2023/03/26 08:50:47;;;;;;;11.05;3.20;;;;;;;;;;5072088;28;20111;-61
2023/03/26 08:53:31;;;;;;;7.35;3.13;;;;;;;;;;5072811;28;20024;-61
2023/03/26 08:56:11;;;;;;;7.40;2.72;;;;;;;;;;5075119;28;20471;-61
2023/03/26 08:58:55;;;;;;;6.57;2.67;;;;;;;;;;5073088;28;20031;-61
2023/03/26 09:01:26;;;;;;;4.63;2.17;;;;;;;;;;5077214;28;20028;-61
2023/03/26 09:04:10;;;;;;;9.88;2.47;;;;;;;;;;5081981;28;20024;-61
2023/03/26 09:06:53;;;;;;;4.05;2.08;;;;;;;;;;5084244;28;20035;-61
2023/03/26 09:09:21;;;;;;;9.83;2.70;;;;;;;;;;5072872;28;20085;-61
2023/03/26 09:11:56;;;;;;;7.00;2.70;;;;;;;;;;5081809;28;20412;-62
2023/03/26 09:14:47;;;;;;;11.45;2.92;;;;;;;;;;5070455;28;20872;-62
2023/03/26 09:17:16;;;;;;;4.70;1.90;;;;;;;;;;5045875;28;20044;-61
2023/03/26 09:20:13;;;;;;;5.07;2.22;;;;;;;;;;5056025;28;20085;-61
2023/03/26 09:22:57;;;;;;;6.35;2.03;;;;;;;;;;5041891;28;20356;-62
2023/03/26 09:25:52;;;;;;;7.30;2.87;;;;;;;;;;5078068;28;20371;-61
2023/03/26 09:28:31;;;;;;;8.85;2.30;;;;;;;;;;5073079;28;20032;-61
2023/03/26 09:31:15;;;;;;;10.82;2.20;;;;;;;;;;5080500;28;20031;-61
2023/03/26 09:33:58;;;;;;;5.57;2.17;;;;;;;;;;5071743;28;20028;-61
2023/03/26 09:36:23;;;;;;;5.35;1.80;;;;;;;;;;5069568;28;20029;-61
2023/03/26 09:38:48;;;;;;;7.75;3.05;;;;;;;;;;5039529;28;20035;-61
2023/03/26 09:41:15;;;;;;;9.25;2.47;;;;;;;;;;5056509;28;20050;-61
2023/03/26 09:43:44;;;;;;;4.03;1.85;;;;;;;;;;5073050;28;20104;-61
2023/03/26 09:46:24;;;;;;;6.43;2.03;;;;;;;;;;5080337;28;20104;-61
2023/03/26 09:48:52;;;;;;;6.95;1.95;;;;;;;;;;5072091;28;20021;-61
2023/03/26 09:51:28;;;;;;;6.90;1.98;;;;;;;;;;5080012;28;20033;-61
2023/03/26 09:54:16;;;;;;;5.43;1.85;;;;;;;;;;5071872;28;20035;-61
2023/03/26 09:57:02;;;;;;;4.25;1.85;;;;;;;;;;5077305;28;20123;-63
2023/03/26 09:59:27;;;;;;;;;;;;;;;;;;5072768;28;20016;-63
2023/03/26 10:02:08;;;;;;;5.70;1.98;;;;;;;;;;5084242;28;19911;-62
2023/03/26 10:04:58;;;;;;;5.07;1.70;;;;;;;;;;5074749;28;20048;-62
2023/03/26 10:07:39;;;;;;;3.97;1.55;;;;;;;;;;5072339;28;20058;-62
2023/03/26 10:10:23;;;;;;;3.78;1.70;;;;;;;;;;5073971;28;20146;-61
2023/03/26 10:12:50;;;;;;;7.88;2.42;;;;;;;;;;5073756;28;20020;-62
2023/03/26 10:15:36;;;;;;;3.40;1.63;;;;;;;;;;5073635;28;20608;-63
2023/03/26 10:18:01;;;;;;;5.35;2.65;;;;;;;;;;5071241;28;20395;-62
2023/03/26 10:20:27;;;;;;;5.13;2.47;;;;;;;;;;5072075;28;20042;-62
2023/03/26 10:23:11;;;;;;;7.63;2.30;;;;;;;;;;5072046;28;20095;-62
2023/03/26 10:25:48;;;;;;;5.13;1.90;;;;;;;;;;5077532;28;20379;-62
2023/03/26 10:28:16;;;;;;;4.75;1.85;;;;;;;;;;5070331;28;20035;-62
2023/03/26 10:30:47;;;;;;;9.30;1.88;;;;;;;;;;5076493;28;20028;-61
2023/03/26 10:33:22;;;;;;;6.70;1.95;;;;;;;;;;5076134;28;20028;-62
2023/03/26 10:35:47;;;;;;;;;;;;;;;;;;5078656;28;20074;-62
2023/03/26 10:38:15;;;;;;;4.18;1.90;;;;;;;;;;5085543;28;19912;-61
2023/03/26 10:40:41;;;;;;;3.45;1.63;;;;;;;;;;5071884;28;20024;-61
2023/03/26 10:43:25;;;;;;;4.53;1.83;;;;;;;;;;5071587;28;20461;-61
2023/03/26 10:46:01;;;;;;;7.40;2.25;;;;;;;;;;5078083;28;20048;-61
2023/03/26 10:48:27;;;;;;;6.72;2.05;;;;;;;;;;5073397;28;20064;-62
2023/03/26 10:51:11;;;;;;;4.88;1.98;;;;;;;;;;5077597;28;20074;-62
2023/03/26 10:53:39;;;;;;;6.70;2.22;;;;;;;;;;5072546;28;20379;-62
2023/03/26 10:56:25;;;;;;;3.90;2.25;;;;;;;;;;5073997;28;20025;-62
2023/03/26 10:58:51;;;;;;;5.68;2.55;;;;;;;;;;5072066;28;20115;-62
2023/03/26 11:01:19;;;;;;;5.38;2.47;;;;;;;;;;5073286;28;20490;-62
2023/03/26 11:03:50;;;;;;;7.50;2.60;;;;;;;;;;5073272;28;20028;-62
2023/03/26 11:06:25;;;;;;;5.88;1.75;;;;;;;;;;5071076;28;20078;-62
2023/03/26 11:08:54;;;;;;;4.13;2.03;;;;;;;;;;5071581;28;20032;-62
2023/03/26 11:11:20;;;;;;;3.70;1.75;;;;;;;;;;5074556;28;20379;-62
2023/03/26 11:13:54;;;;;;;4.18;2.00;;;;;;;;;;5070962;28;20033;-62
2023/03/26 11:16:48;;;;;;;3.25;1.58;;;;;;;;;;5073042;28;20020;-62
2023/03/26 11:19:19;;;;;;;4.80;1.88;;;;;;;;;;5071309;28;20020;-62
2023/03/26 11:22:00;;;;;;;8.05;1.90;;;;;;;;;;5071615;28;20028;-61
2023/03/26 11:24:37;;;;;;;4.60;1.88;;;;;;;;;;5070921;28;20043;-61
2023/03/26 11:27:17;;;;;;;3.22;1.50;;;;;;;;;;5073933;28;20486;-62
2023/03/26 11:29:51;;;;;;;3.25;1.25;;;;;;;;;;5071095;28;20033;-62
2023/03/26 11:32:21;;;;;;;3.63;1.50;;;;;;;;;;5071073;28;20025;-61
2023/03/26 11:34:49;;;;;;;4.60;1.15;;;;;;;;;;5071991;28;20024;-61
2023/03/26 11:37:18;;;;;;;4.00;2.17;;;;;;;;;;5079937;28;20024;-61
2023/03/26 11:39:55;;;;;;;3.55;1.65;;;;;;;;;;5073820;28;20020;-61
2023/03/26 11:42:21;;;;;;;2.97;1.40;;;;;;;;;;5082904;28;20458;-62
2023/03/26 11:44:51;;;;;;;6.25;1.63;;;;;;;;;;5074007;28;20089;-61
2023/03/26 11:47:19;;;;;;;3.40;1.63;;;;;;;;;;5080542;28;20025;-62
2023/03/26 11:49:45;;;;;;;5.40;2.05;;;;;;;;;;5074651;28;20525;-62
2023/03/26 11:52:11;;;;;;;5.45;1.50;;;;;;;;;;5079037;28;20038;-62
2023/03/26 11:54:37;;;;;;;5.53;1.52;;;;;;;;;;5074013;28;20111;-62
2023/03/26 11:57:05;;;;;;;3.88;1.75;;;;;;;;;;5091688;28;20035;-61
2023/03/26 11:59:35;;;;;;;3.55;1.70;;;;;;;;;;5089955;28;20120;-62
2023/03/26 12:02:03;;;;;;;6.25;1.88;;;;;;;;;;5087979;28;20054;-62
2023/03/26 12:04:42;;;;;;;2.67;1.40;;;;;;;;;;5069998;28;20487;-62
2023/03/26 12:07:19;;;;;;;3.80;1.67;;;;;;;;;;5080958;28;20058;-62
2023/03/26 12:09:49;;;;;;;3.70;1.58;;;;;;;;;;5073909;28;20045;-61
2023/03/26 12:12:15;;;;;;;2.90;1.45;;;;;;;;;;5086685;28;20054;-62
2023/03/26 12:14:41;;;;;;;3.42;1.88;;;;;;;;;;5074324;28;20024;-62
2023/03/26 12:17:08;;;;;;;9.88;1.90;;;;;;;;;;5085506;28;20375;-62
2023/03/26 12:19:38;;;;;;;6.63;2.08;;;;;;;;;;5084766;28;20060;-62
2023/03/26 12:22:03;;;;;;;5.97;2.03;;;;;;;;;;5083816;28;20046;-61
2023/03/26 12:24:33;;;;;;;5.50;2.08;;;;;;;;;;5075079;28;20028;-62
2023/03/26 12:27:00;;;;;;;6.15;2.05;;;;;;;;;;5083396;28;20386;-62
2023/03/26 12:29:26;;;;;;;5.72;2.85;;;;;;;;;;5074345;28;20024;-62
2023/03/26 12:32:06;;;;;;;3.60;2.05;;;;;;;;;;5080047;28;20039;-62
2023/03/26 12:34:34;;;;;;;4.38;2.30;;;;;;;;;;5073489;28;20104;-62
2023/03/26 12:37:00;;;;;;;4.93;1.95;;;;;;;;;;5078993;28;20475;-62
2023/03/26 12:39:28;;;;;;;4.18;2.10;;;;;;;;;;5073615;28;20021;-62
2023/03/26 12:41:55;;;;;;;3.53;2.30;;;;;;;;;;5077489;28;20023;-62
2023/03/26 12:44:24;;;;;;;5.63;2.35;;;;;;;;;;5073333;28;20024;-61
2023/03/26 12:46:52;;;;;;;6.75;2.47;;;;;;;;;;5077519;28;20036;-62
2023/03/26 12:49:18;;;;;;;4.32;2.58;;;;;;;;;;5073396;28;20028;-62
2023/03/26 12:51:51;;;;;;;4.45;2.38;;;;;;;;;;5073648;28;20036;-62
2023/03/26 12:54:37;;;;;;;4.82;2.17;;;;;;;;;;5081860;28;20065;-62
2023/03/26 12:57:06;;;;;;;8.02;2.60;;;;;;;;;;5077832;28;20024;-62
2023/03/26 12:59:50;;;;;;;6.68;2.58;;;;;;;;;;5068744;28;20029;-62
2023/03/26 13:02:22;;;;;;;7.05;3.25;;;;;;;;;;5075968;28;20127;-62
2023/03/26 13:04:51;;;;;;;9.32;3.90;;;;;;;;;;5068300;28;20025;-62
2023/03/26 13:07:27;;;;;;;4.82;2.83;;;;;;;;;;5073492;28;20043;-62
2023/03/26 13:10:07;;;;;;;7.93;2.88;;;;;;;;;;5072799;28;20013;-62
2023/03/26 13:12:47;;;;;;;5.13;2.42;;;;;;;;;;5082769;28;20085;-64
2023/03/26 13:15:24;;;;;;;6.45;2.53;;;;;;;;;;5080791;28;20051;-62
2023/03/26 13:18:06;;;;;;;6.70;2.92;;;;;;;;;;5085303;28;20016;-62
2023/03/26 13:20:48;;;;;;;5.70;2.88;;;;;;;;;;5072800;28;20086;-62
2023/03/26 13:23:20;;;;;;;7.43;2.88;;;;;;;;;;5085654;28;20110;-63
2023/03/26 13:25:51;;;;;;;7.60;3.10;;;;;;;;;;5078498;28;20024;-63
2023/03/26 13:28:33;;;;;;;4.88;3.17;;;;;;;;;;5077723;28;20040;-63
2023/03/26 13:31:17;;;;;;;5.45;2.70;;;;;;;;;;5072891;28;20074;-63
2023/03/26 13:33:49;;;;;;;5.78;3.33;;;;;;;;;;5072702;28;20021;-63
2023/03/26 13:36:23;;;;;;;4.03;2.60;;;;;;;;;;5072225;28;20024;-62
2023/03/26 13:38:50;;;;;;;;;;;;;;;;;;5077082;28;20043;-62
2023/03/26 13:41:24;;;;;;;7.20;3.78;;;;;;;;;;5076110;28;19923;-62
2023/03/26 13:43:50;;;;;;;7.13;4.47;;;;;;;;;;5073265;28;20031;-62
2023/03/26 13:46:19;;;;;;;6.30;3.57;;;;;;;;;;5072848;28;20029;-62
2023/03/26 13:48:47;;;;;;;7.80;3.53;;;;;;;;;;5088914;28;20283;-62
2023/03/26 13:51:35;;;;;;;4.93;2.60;;;;;;;;;;5081776;28;20133;-62
2023/03/26 13:54:21;;;;;;;3.83;2.67;;;;;;;;;;5072039;28;20036;-61
2023/03/26 13:56:49;;;;;;;3.88;2.70;;;;;;;;;;5063780;28;20032;-62
2023/03/26 13:59:26;;;;;;;4.75;2.80;;;;;;;;;;5072666;28;20395;-62
2023/03/26 14:01:56;;;;;;;6.85;2.35;;;;;;;;;;5073261;28;20091;-62
2023/03/26 14:04:31;;;;;;;10.40;2.15;;;;;;;;;;5078367;28;20028;-62
2023/03/26 14:06:59;;;;;;;3.33;1.98;;;;;;;;;;5077411;28;20471;-62
2023/03/26 14:09:33;;;;;;;11.63;2.10;;;;;;;;;;5072261;28;20026;-61
2023/03/26 14:11:59;;;;;;;;;;;;;;;;;;5076628;28;20107;-62
2023/03/26 14:14:30;;;;;;;3.40;1.48;;;;;;;;;;5074163;28;20440;-62
2023/03/26 14:16:58;;;;;;;2.90;1.70;;;;;;;;;;5078833;28;20470;-62
2023/03/26 14:19:42;;;;;;;2.85;1.48;;;;;;;;;;5073808;28;20028;-62
2023/03/26 14:22:23;;;;;;;2.63;1.73;;;;;;;;;;5085480;28;20394;-62
2023/03/26 14:24:54;;;;;;;3.55;1.70;;;;;;;;;;5078854;28;20035;-62
2023/03/26 14:27:46;;;;;;;4.20;1.95;;;;;;;;;;5075136;28;20123;-62
2023/03/26 14:30:14;;;;;;;2.63;1.50;;;;;;;;;;5068432;28;20044;-62
2023/03/26 14:32:51;;;;;;;3.67;1.77;;;;;;;;;;5071038;28;20020;-62
2023/03/26 14:35:26;;;;;;;2.53;1.30;;;;;;;;;;5077699;28;20082;-62
2023/03/26 14:37:51;;;;;;;;;;;;;;;;;;5076755;28;20116;-62
2023/03/26 14:40:26;;;;;;;3.95;2.30;;;;;;;;;;5071283;28;19996;-62
2023/03/26 14:42:56;;;;;;;3.58;2.03;;;;;;;;;;5074890;28;20104;-62
2023/03/26 14:45:22;;;;;;;3.90;2.13;;;;;;;;;;5071279;28;20028;-62
2023/03/26 14:48:06;;;;;;;4.18;2.03;;;;;;;;;;5080469;28;20025;-62
2023/03/26 14:50:34;;;;;;;3.58;2.17;;;;;;;;;;5071549;28;20391;-62
2023/03/26 14:53:03;;;;;;;7.55;3.00;;;;;;;;;;5072672;28;20024;-63
2023/03/26 14:55:31;;;;;;;3.88;2.28;;;;;;;;;;5071620;28;20375;-62